KEVV

Evansville Regional Airport

Evansville, Indiana, USA
METAR KEVV 190654Z AUTO 21009KT 10SM CLR M06/M11 A3024 RMK AO2 SLP246 T10611106
Observed Flight Rules
Jan-19 @ 06:54 UTC (30 minutes ago) Visual Flight Rules
Wind Visibility Clouds
210° at 9 knots 10 miles
  • Clear skies
Temperatures Readings
Current -6°C / 21°F
Dewpoint -11°C / 12°F
Humidity 68%
Altimeter 30.24" Hg
Pressure 1024.6 hPa
Elevation 117
METAR KEVV 190654Z AUTO 21009KT 10SM CLR M06/M11 A3024 RMK AO2 SLP246 T10611106
Observed Flight Rules
Jan-19 @ 06:54 UTC
(30 minutes ago)
VFR
Wind Visibility
210° at 9 knots 10 miles
Clouds
  • Clear skies
Temperature Dewpoint
-6°C / 21°F -11°C / 12°F
Humidity Altimeter Pressure
68% 30.24" Hg 1024.6 hPa